createdAt,value
2023-04-11T00:01:00.862Z,3.12
2023-04-11T00:03:29.318Z,3.06
2023-04-11T00:05:57.620Z,3.07
2023-04-11T00:08:26.096Z,3.05
2023-04-11T00:11:00.891Z,3.03
2023-04-11T00:13:29.001Z,3.00
2023-04-11T00:15:59.321Z,2.98
2023-04-11T00:18:28.625Z,2.94
2023-04-11T00:21:03.253Z,2.92
2023-04-11T00:23:31.501Z,2.89
2023-04-11T00:26:01.046Z,2.88
2023-04-11T00:28:29.162Z,2.85
2023-04-11T00:30:57.229Z,2.85
2023-04-11T00:33:27.251Z,2.84
2023-04-11T00:35:55.530Z,2.81
2023-04-11T00:38:23.663Z,2.81
2023-04-11T00:40:51.926Z,2.81
2023-04-11T00:43:23.642Z,2.79
2023-04-11T00:45:52.784Z,2.79
2023-04-11T00:48:21.496Z,2.78
2023-04-11T00:50:51.610Z,2.78
2023-04-11T00:53:19.712Z,2.76
2023-04-11T00:55:48.053Z,2.76
2023-04-11T00:58:18.061Z,2.74
2023-04-11T01:00:50.068Z,2.75
2023-04-11T01:03:19.606Z,2.76
2023-04-11T01:05:52.423Z,2.77
2023-04-11T01:08:22.514Z,2.78
2023-04-11T01:10:50.830Z,2.78
2023-04-11T01:13:28.927Z,2.79
2023-04-11T01:15:58.655Z,2.81
2023-04-11T01:18:26.864Z,2.80
2023-04-11T01:20:55.471Z,2.81
2023-04-11T01:23:26.046Z,2.79
2023-04-11T01:25:56.731Z,2.79
2023-04-11T01:28:24.929Z,2.77
2023-04-11T01:30:53.158Z,2.75
2023-04-11T01:33:22.271Z,2.77
2023-04-11T01:35:58.344Z,2.74
2023-04-11T01:38:28.049Z,2.76
2023-04-11T01:40:57.176Z,2.75
2023-04-11T01:43:25.562Z,2.75
2023-04-11T01:45:55.249Z,2.76
2023-04-11T01:48:23.669Z,2.79
2023-04-11T01:50:53.176Z,2.80
2023-04-11T01:53:21.443Z,2.82
2023-04-11T01:55:51.147Z,2.82
2023-04-11T01:58:19.192Z,2.84
2023-04-11T02:00:47.880Z,2.84
2023-04-11T02:03:17.650Z,2.88
2023-04-11T02:05:46.392Z,2.88
2023-04-11T02:08:14.692Z,2.91
2023-04-11T02:10:45.476Z,2.94
2023-04-11T02:13:15.140Z,2.96
2023-04-11T02:15:55.549Z,2.96
2023-04-11T02:18:24.392Z,2.98
2023-04-11T02:20:52.986Z,2.98
2023-04-11T02:23:21.843Z,2.99
2023-04-11T02:25:51.188Z,3.00
2023-04-11T02:28:21.150Z,3.00
2023-04-11T02:30:57.311Z,3.00
2023-04-11T02:33:26.305Z,3.00
2023-04-11T02:35:54.393Z,2.97
2023-04-11T02:38:22.854Z,2.98
2023-04-11T02:40:51.061Z,2.97
2023-04-11T02:43:20.564Z,2.97
2023-04-11T02:45:49.723Z,2.99
2023-04-11T02:48:17.993Z,3.00
2023-04-11T02:50:46.176Z,3.00
2023-04-11T02:53:15.113Z,3.02
2023-04-11T02:55:43.508Z,3.04
2023-04-11T02:58:25.989Z,3.06
2023-04-11T03:00:54.213Z,3.06
2023-04-11T03:03:23.581Z,3.08
2023-04-11T03:05:51.916Z,3.09
2023-04-11T03:08:20.055Z,3.12
2023-04-11T03:11:03.114Z,3.14
2023-04-11T03:13:32.736Z,3.16
2023-04-11T03:16:01.296Z,3.20
2023-04-11T03:18:30.822Z,3.22
2023-04-11T03:20:58.904Z,3.25
2023-04-11T03:23:27.059Z,3.27
2023-04-11T03:25:55.526Z,3.27
2023-04-11T03:28:24.225Z,3.32
2023-04-11T03:30:54.586Z,3.34
2023-04-11T03:33:31.551Z,3.36
2023-04-11T03:35:59.692Z,3.39
2023-04-11T03:38:27.994Z,3.43
2023-04-11T03:40:56.391Z,3.48
2023-04-11T03:43:27.985Z,3.53
2023-04-11T03:45:57.755Z,3.57
2023-04-11T03:48:31.084Z,3.62
2023-04-11T03:50:59.300Z,3.66
2023-04-11T03:53:35.022Z,3.70
2023-04-11T03:56:04.314Z,3.76
2023-04-11T03:58:36.461Z,3.81
2023-04-11T04:01:06.817Z,3.86
2023-04-11T04:03:36.561Z,3.90
2023-04-11T04:06:06.367Z,3.91
2023-04-11T04:08:34.900Z,3.95
2023-04-11T04:11:03.111Z,3.99
2023-04-11T04:13:37.791Z,4.00
2023-04-11T04:16:08.882Z,4.02
2023-04-11T04:18:38.439Z,4.02
2023-04-11T04:21:08.660Z,4.02
2023-04-11T04:23:39.474Z,4.03
2023-04-11T04:26:09.399Z,4.05
2023-04-11T04:28:37.608Z,4.05
2023-04-11T04:31:08.792Z,4.08
2023-04-11T04:33:36.985Z,4.10
2023-04-11T04:36:05.821Z,4.15
2023-04-11T04:38:38.564Z,4.19
2023-04-11T04:41:15.196Z,4.23
2023-04-11T04:43:43.757Z,4.25
2023-04-11T04:46:13.318Z,4.28
2023-04-11T04:48:41.880Z,4.31
2023-04-11T04:51:10.127Z,4.33
2023-04-11T04:53:39.045Z,4.39
2023-04-11T04:56:08.286Z,4.42
2023-04-11T04:58:36.664Z,4.44
2023-04-11T05:01:04.996Z,4.46
2023-04-11T05:03:35.870Z,4.49
2023-04-11T05:06:04.328Z,4.50
2023-04-11T05:08:34.764Z,4.53
2023-04-11T05:11:02.900Z,4.54
2023-04-11T05:13:32.772Z,4.58
2023-04-11T05:16:01.113Z,4.62
2023-04-11T05:18:30.720Z,4.64
2023-04-11T05:21:00.475Z,4.66
2023-04-11T05:23:28.715Z,4.69
2023-04-11T05:25:56.932Z,4.71
2023-04-11T05:28:25.208Z,4.77
2023-04-11T05:30:53.383Z,4.82
2023-04-11T05:33:22.008Z,4.86
2023-04-11T05:35:50.268Z,4.92
2023-04-11T05:38:23.490Z,4.93
2023-04-11T05:40:51.672Z,4.95
2023-04-11T05:43:19.853Z,5.03
2023-04-11T05:45:48.999Z,5.06
2023-04-11T05:48:17.412Z,5.12
2023-04-11T05:50:46.050Z,5.22
2023-04-11T05:53:17.152Z,5.24
2023-04-11T05:55:46.928Z,5.32
2023-04-11T05:58:15.332Z,5.37
2023-04-11T06:00:43.672Z,5.46
2023-04-11T06:03:33.302Z,5.55
2023-04-11T06:06:01.735Z,5.63
2023-04-11T06:08:31.030Z,5.71
2023-04-11T06:11:00.645Z,5.83
2023-04-11T06:13:28.921Z,5.94
2023-04-11T06:15:57.782Z,6.10
2023-04-11T06:18:26.347Z,6.19
2023-04-11T06:20:55.074Z,6.27
2023-04-11T06:23:23.991Z,6.36
2023-04-11T06:25:53.680Z,6.48
2023-04-11T06:28:23.264Z,6.61
2023-04-11T06:30:52.366Z,6.76
2023-04-11T06:33:24.047Z,6.92
2023-04-11T06:35:52.260Z,7.06
2023-04-11T06:38:21.035Z,7.19
2023-04-11T06:40:51.640Z,7.33
2023-04-11T06:43:19.785Z,7.43
2023-04-11T06:45:50.324Z,7.56
2023-04-11T06:48:20.497Z,7.66
2023-04-11T06:50:50.010Z,7.72
2023-04-11T06:53:18.168Z,7.80
2023-04-11T06:55:49.848Z,7.95
2023-04-11T06:58:17.994Z,8.08
2023-04-11T07:00:46.247Z,8.14
2023-04-11T07:03:15.943Z,8.18
2023-04-11T07:05:44.316Z,8.19
2023-04-11T07:08:12.649Z,8.28
2023-04-11T07:10:40.854Z,8.38
2023-04-11T07:13:09.025Z,8.47
2023-04-11T07:15:37.159Z,8.61
2023-04-11T07:18:06.680Z,8.76
2023-04-11T07:20:37.126Z,8.90
2023-04-11T07:23:05.429Z,9.02
2023-04-11T07:25:35.730Z,9.08
2023-04-11T07:28:08.481Z,9.21
2023-04-11T07:30:39.538Z,9.30
2023-04-11T07:33:07.718Z,9.39
2023-04-11T07:35:37.378Z,9.44
2023-04-11T07:38:05.618Z,9.54
2023-04-11T07:40:33.710Z,9.65
2023-04-11T07:43:02.819Z,9.73
2023-04-11T07:45:31.472Z,9.76
2023-04-11T07:47:59.709Z,9.83
2023-04-11T07:50:28.374Z,9.88
2023-04-11T07:52:57.843Z,9.95
2023-04-11T07:55:26.666Z,10.00
2023-04-11T07:57:55.091Z,10.10
2023-04-11T08:00:24.564Z,10.20
2023-04-11T08:02:53.286Z,10.23
2023-04-11T08:05:22.060Z,10.24
2023-04-11T08:07:52.739Z,10.31
2023-04-11T08:10:22.901Z,10.44
2023-04-11T08:12:51.297Z,10.53
2023-04-11T08:15:20.863Z,10.60
2023-04-11T08:17:52.619Z,10.74
2023-04-11T08:20:22.841Z,10.92
2023-04-11T08:22:51.288Z,11.06
2023-04-11T08:25:30.664Z,11.15
2023-04-11T08:27:58.784Z,11.24
2023-04-11T08:30:32.537Z,11.37
2023-04-11T08:33:00.878Z,11.48
2023-04-11T08:35:33.990Z,11.60
2023-04-11T08:38:02.189Z,11.65
2023-04-11T08:40:39.911Z,11.64
2023-04-11T08:43:12.387Z,11.61
2023-04-11T08:45:41.251Z,11.65
2023-04-11T08:48:12.440Z,11.61
2023-04-11T08:50:42.159Z,11.59
2023-04-11T08:53:10.798Z,11.57
2023-04-11T08:55:47.886Z,11.65
2023-04-11T08:58:18.421Z,11.72
2023-04-11T09:00:47.076Z,11.82
2023-04-11T09:03:17.753Z,11.88
2023-04-11T09:05:46.787Z,11.99
2023-04-11T09:08:17.704Z,12.08
2023-04-11T09:10:48.203Z,12.19
2023-04-11T09:13:22.480Z,12.37
2023-04-11T09:16:06.132Z,12.53
2023-04-11T09:18:36.610Z,12.66
2023-04-11T09:21:12.189Z,12.74
2023-04-11T09:23:40.707Z,12.92
2023-04-11T09:26:13.190Z,13.04
2023-04-11T09:28:45.053Z,13.15
2023-04-11T09:31:14.264Z,13.31
2023-04-11T09:33:54.833Z,13.47
2023-04-11T09:36:24.927Z,13.66
2023-04-11T09:38:54.082Z,13.75
2023-04-11T09:41:38.359Z,13.89
2023-04-11T09:44:06.698Z,13.86
2023-04-11T09:46:35.479Z,13.94
2023-04-11T09:49:04.949Z,14.01
2023-04-11T09:51:36.998Z,14.04
2023-04-11T09:54:06.607Z,14.11
2023-04-11T09:56:36.496Z,14.16
2023-04-11T09:59:06.738Z,14.16
2023-04-11T10:01:35.134Z,14.23
2023-04-11T10:04:04.656Z,14.30
2023-04-11T10:06:38.910Z,14.38
2023-04-11T10:09:09.764Z,14.50
2023-04-11T10:11:42.585Z,14.56
2023-04-11T10:14:10.948Z,14.61
2023-04-11T10:17:22.004Z,14.78
2023-04-11T10:19:52.675Z,14.97
2023-04-11T10:23:00.667Z,15.11
2023-04-11T10:25:30.939Z,15.22
2023-04-11T10:28:02.149Z,15.25
2023-04-11T10:31:00.608Z,15.34
2023-04-11T10:33:32.260Z,15.43
2023-04-11T10:36:03.811Z,15.62
2023-04-11T10:38:48.936Z,15.79
2023-04-11T10:41:27.031Z,15.90
2023-04-11T10:44:21.118Z,15.97
2023-04-11T10:46:52.132Z,16.03
2023-04-11T10:49:36.547Z,16.11
2023-04-11T10:52:30.123Z,16.13
2023-04-11T10:55:18.288Z,16.10
2023-04-11T10:58:05.785Z,16.23
2023-04-11T11:01:25.881Z,16.33
2023-04-11T11:04:07.063Z,16.51
2023-04-11T11:06:47.353Z,16.60
2023-04-11T11:09:24.306Z,16.76
2023-04-11T11:12:09.097Z,16.74
2023-04-11T11:14:43.724Z,16.70
2023-04-11T11:17:20.439Z,16.67
2023-04-11T11:19:50.517Z,16.55
2023-04-11T11:22:25.640Z,16.47
2023-04-11T11:24:54.598Z,16.58
2023-04-11T11:27:25.276Z,16.65
2023-04-11T11:29:53.967Z,16.73
2023-04-11T11:32:25.310Z,16.76
2023-04-11T11:34:55.652Z,16.76
2023-04-11T11:37:24.048Z,16.80
2023-04-11T11:39:52.745Z,16.72
2023-04-11T11:42:21.350Z,16.77
2023-04-11T11:44:49.483Z,16.85
2023-04-11T11:47:17.986Z,16.92
2023-04-11T11:49:47.967Z,17.12
2023-04-11T11:52:36.554Z,17.34
2023-04-11T11:55:09.622Z,17.45
2023-04-11T11:57:41.761Z,17.57
2023-04-11T12:00:38.692Z,17.65
2023-04-11T12:03:06.009Z,17.70
2023-04-11T12:05:35.990Z,17.72
2023-04-11T12:08:07.498Z,17.68
2023-04-11T12:10:40.637Z,17.63
2023-04-11T12:13:16.528Z,17.60
2023-04-11T12:15:48.316Z,17.53
2023-04-11T12:18:20.935Z,17.48
2023-04-11T12:20:49.582Z,17.40
2023-04-11T12:23:19.529Z,17.32
2023-04-11T12:25:50.642Z,17.17
2023-04-11T12:28:21.366Z,17.03
2023-04-11T12:30:49.578Z,16.97
2023-04-11T12:33:17.664Z,16.95
2023-04-11T12:35:45.983Z,16.93
2023-04-11T12:38:17.411Z,17.04
2023-04-11T12:40:50.995Z,17.20
2023-04-11T12:43:21.813Z,17.32
2023-04-11T12:45:50.202Z,17.50
2023-04-11T12:48:18.800Z,17.62
2023-04-11T12:50:47.090Z,17.75
2023-04-11T12:53:15.159Z,17.82
2023-04-11T12:55:45.274Z,17.85
2023-04-11T12:58:14.861Z,17.88
2023-04-11T13:00:43.022Z,17.88
2023-04-11T13:03:11.426Z,17.92
2023-04-11T13:05:39.707Z,18.01
2023-04-11T13:08:08.301Z,18.03
2023-04-11T13:10:36.657Z,18.01
2023-04-11T13:13:18.005Z,18.03
2023-04-11T13:15:48.022Z,18.03
2023-04-11T13:18:16.440Z,17.97
2023-04-11T13:20:44.644Z,17.96
2023-04-11T13:24:04.971Z,17.86
2023-04-11T13:26:33.422Z,17.81
2023-04-11T13:29:01.597Z,17.77
2023-04-11T13:31:31.271Z,17.74
2023-04-11T13:33:59.824Z,17.72
2023-04-11T13:36:28.365Z,17.51
2023-04-11T13:38:57.783Z,17.40
2023-04-11T13:41:26.934Z,17.39
2023-04-11T13:43:56.192Z,17.38
2023-04-11T13:46:24.493Z,17.37
2023-04-11T13:48:54.350Z,17.33
2023-04-11T13:51:22.630Z,17.20
2023-04-11T13:53:51.247Z,17.18
2023-04-11T13:56:20.659Z,17.17
2023-04-11T13:58:48.874Z,17.06
2023-04-11T14:01:17.286Z,16.96
2023-04-11T14:03:45.633Z,16.91
2023-04-11T14:06:17.647Z,16.90
2023-04-11T14:08:45.935Z,16.86
2023-04-11T14:11:14.187Z,16.89
2023-04-11T14:13:42.450Z,16.83
2023-04-11T14:16:11.154Z,16.79
2023-04-11T14:18:39.743Z,16.75
2023-04-11T14:21:12.148Z,16.66
2023-04-11T14:23:41.782Z,16.59
2023-04-11T14:26:11.874Z,16.61
2023-04-11T14:28:40.341Z,16.62
2023-04-11T14:31:09.825Z,16.61
2023-04-11T14:33:38.117Z,16.58
2023-04-11T14:36:15.363Z,16.59
2023-04-11T14:38:45.183Z,16.59
2023-04-11T14:41:13.553Z,16.58
2023-04-11T14:43:44.554Z,16.55
2023-04-11T14:46:12.891Z,16.47
2023-04-11T14:48:41.242Z,16.36
2023-04-11T14:51:10.829Z,16.22
2023-04-11T14:53:39.218Z,16.07
2023-04-11T14:56:11.842Z,16.02
2023-04-11T14:58:41.446Z,15.96
2023-04-11T15:01:10.657Z,15.97
2023-04-11T15:03:39.011Z,15.97
2023-04-11T15:06:09.391Z,15.94
2023-04-11T15:08:37.674Z,15.93
2023-04-11T15:11:06.871Z,15.88
2023-04-11T15:13:36.847Z,15.86
2023-04-11T15:16:05.932Z,15.80
2023-04-11T15:18:36.360Z,15.79
2023-04-11T15:21:07.237Z,15.78
2023-04-11T15:23:35.797Z,15.72
2023-04-11T15:26:05.090Z,15.73
2023-04-11T15:28:34.934Z,15.71
2023-04-11T15:31:06.650Z,15.71
2023-04-11T15:33:35.281Z,15.71
2023-04-11T15:36:03.547Z,15.68
2023-04-11T15:38:31.850Z,15.67
2023-04-11T15:41:03.358Z,15.63
2023-04-11T15:43:32.254Z,15.58
2023-04-11T15:46:02.214Z,15.50
2023-04-11T15:48:33.269Z,15.46
2023-04-11T15:51:02.556Z,15.45
2023-04-11T15:53:30.924Z,15.39
2023-04-11T15:55:59.068Z,15.40
2023-04-11T15:58:27.794Z,15.38
2023-04-11T16:01:01.571Z,15.34
2023-04-11T16:03:36.175Z,15.37
2023-04-11T16:06:06.024Z,15.35
2023-04-11T16:08:34.385Z,15.31
2023-04-11T16:11:03.839Z,15.23
2023-04-11T16:13:32.171Z,15.18
2023-04-11T16:16:03.391Z,15.13
2023-04-11T16:18:33.888Z,15.10
2023-04-11T16:21:02.478Z,15.08
2023-04-11T16:23:30.654Z,14.98
2023-04-11T16:25:58.884Z,14.97
2023-04-11T16:28:26.986Z,14.92
2023-04-11T16:30:56.499Z,14.91
2023-04-11T16:33:25.348Z,14.91
2023-04-11T16:35:55.065Z,14.88
2023-04-11T16:38:23.535Z,14.84
2023-04-11T16:40:51.721Z,14.78
2023-04-11T16:43:19.830Z,14.68
2023-04-11T16:45:47.993Z,14.57
2023-04-11T16:48:16.296Z,14.47
2023-04-11T16:50:44.605Z,14.44
2023-04-11T16:53:14.272Z,14.36
2023-04-11T16:55:46.089Z,14.28
2023-04-11T16:58:14.287Z,14.19
2023-04-11T17:00:44.082Z,14.06
2023-04-11T17:03:13.346Z,14.01
2023-04-11T17:05:41.839Z,13.93
2023-04-11T17:08:09.992Z,13.81
2023-04-11T17:10:39.695Z,13.72
2023-04-11T17:13:07.925Z,13.59
2023-04-11T17:15:36.227Z,13.50
2023-04-11T17:18:04.611Z,13.39
2023-04-11T17:20:32.858Z,13.29
2023-04-11T17:23:04.467Z,13.18
2023-04-11T17:25:32.672Z,13.08
2023-04-11T17:28:02.306Z,13.00
2023-04-11T17:30:33.958Z,12.90
2023-04-11T17:33:02.278Z,12.82
2023-04-11T17:35:30.512Z,12.75
2023-04-11T17:37:58.849Z,12.70
2023-04-11T17:40:27.232Z,12.59
2023-04-11T17:42:57.753Z,12.54
2023-04-11T17:45:29.902Z,12.45
2023-04-11T17:47:58.435Z,12.40
2023-04-11T17:50:27.155Z,12.36
2023-04-11T17:52:55.261Z,12.33
2023-04-11T17:55:23.500Z,12.26
2023-04-11T17:57:53.876Z,12.26
2023-04-11T18:00:23.598Z,12.23
2023-04-11T18:02:57.870Z,12.22
2023-04-11T18:05:29.486Z,12.19
2023-04-11T18:07:59.914Z,12.20
2023-04-11T18:10:29.546Z,12.19
2023-04-11T18:13:00.576Z,12.18
2023-04-11T18:15:29.546Z,12.14
2023-04-11T18:18:00.897Z,12.10
2023-04-11T18:20:29.075Z,12.04
2023-04-11T18:22:57.807Z,12.00
2023-04-11T18:25:25.932Z,11.98
2023-04-11T18:27:54.100Z,11.93
2023-04-11T18:30:22.223Z,11.87
2023-04-11T18:32:52.404Z,11.80
2023-04-11T18:35:22.684Z,11.73
2023-04-11T18:37:51.406Z,11.65
2023-04-11T18:40:19.662Z,11.53
2023-04-11T18:42:51.604Z,11.47
2023-04-11T18:45:22.009Z,11.37
2023-04-11T18:47:51.114Z,11.30
2023-04-11T18:50:21.756Z,11.23
2023-04-11T18:52:54.695Z,11.12
2023-04-11T18:55:24.842Z,11.03
2023-04-11T18:57:56.083Z,10.93
2023-04-11T19:00:25.351Z,10.86
2023-04-11T19:02:54.241Z,10.76
2023-04-11T19:05:25.538Z,10.67
2023-04-11T19:07:53.936Z,10.59
2023-04-11T19:10:22.588Z,10.51
2023-04-11T19:12:50.748Z,10.43
2023-04-11T19:15:20.763Z,10.39
2023-04-11T19:17:50.646Z,10.31
2023-04-11T19:20:19.341Z,10.25
2023-04-11T19:22:48.889Z,10.21
2023-04-11T19:25:17.443Z,10.13
2023-04-11T19:27:47.294Z,10.11
2023-04-11T19:30:15.900Z,10.06
2023-04-11T19:32:46.133Z,10.05
2023-04-11T19:35:15.524Z,9.96
2023-04-11T19:37:49.073Z,9.92
2023-04-11T19:40:18.840Z,9.87
2023-04-11T19:42:46.955Z,9.87
2023-04-11T19:45:15.953Z,9.86
2023-04-11T19:47:44.051Z,9.84
2023-04-11T19:50:14.358Z,9.83
2023-04-11T19:52:43.976Z,9.83
2023-04-11T19:55:13.056Z,9.78
2023-04-11T19:57:43.835Z,9.74
2023-04-11T20:00:14.435Z,9.69
2023-04-11T20:02:45.958Z,9.65
2023-04-11T20:05:16.315Z,9.62
2023-04-11T20:07:45.215Z,9.60
2023-04-11T20:10:14.748Z,9.58
2023-04-11T20:12:44.383Z,9.57
2023-04-11T20:15:18.985Z,9.54
2023-04-11T20:17:53.536Z,9.52
2023-04-11T20:20:22.137Z,9.51
2023-04-11T20:22:50.196Z,9.51
2023-04-11T20:25:18.545Z,9.49
2023-04-11T20:27:48.404Z,9.47
2023-04-11T20:30:17.924Z,9.47
2023-04-11T20:32:46.548Z,9.45
2023-04-11T20:35:14.904Z,9.41
2023-04-11T20:37:46.160Z,9.39
2023-04-11T20:40:14.803Z,9.34
2023-04-11T20:42:46.112Z,9.28
2023-04-11T20:45:18.212Z,9.23
2023-04-11T20:47:47.814Z,9.20
2023-04-11T20:50:19.440Z,9.16
2023-04-11T20:52:50.706Z,9.07
2023-04-11T20:55:18.960Z,9.01
2023-04-11T20:57:47.027Z,9.02
2023-04-11T21:00:18.634Z,9.02
2023-04-11T21:02:50.084Z,9.05
2023-04-11T21:05:22.556Z,9.06
2023-04-11T21:07:51.709Z,9.05
2023-04-11T21:10:21.065Z,9.06
2023-04-11T21:12:51.875Z,9.08
2023-04-11T21:15:22.470Z,9.09
2023-04-11T21:17:52.373Z,9.09
2023-04-11T21:20:22.853Z,9.14
2023-04-11T21:22:53.011Z,9.15
2023-04-11T21:25:21.902Z,9.18
2023-04-11T21:27:50.072Z,9.20
2023-04-11T21:30:18.712Z,9.20
2023-04-11T21:32:48.358Z,9.24
2023-04-11T21:35:16.528Z,9.22
2023-04-11T21:37:45.999Z,9.27
2023-04-11T21:40:16.393Z,9.26
2023-04-11T21:42:44.554Z,9.26
2023-04-11T21:45:15.463Z,9.25
2023-04-11T21:47:46.068Z,9.34
2023-04-11T21:50:15.788Z,9.37
2023-04-11T21:52:44.723Z,9.40
2023-04-11T21:55:13.619Z,9.41
2023-04-11T21:57:42.014Z,9.44
2023-04-11T22:00:13.983Z,9.44
2023-04-11T22:02:42.474Z,9.43
2023-04-11T22:05:15.264Z,9.44
2023-04-11T22:07:48.781Z,9.46
2023-04-11T22:10:23.575Z,9.50
2023-04-11T22:12:53.989Z,9.51
2023-04-11T22:15:24.207Z,9.47
2023-04-11T22:17:54.717Z,9.44
2023-04-11T22:20:24.578Z,9.39
2023-04-11T22:22:57.169Z,9.39
2023-04-11T22:25:25.560Z,9.41
2023-04-11T22:27:54.902Z,9.42
2023-04-11T22:30:24.491Z,9.44
2023-04-11T22:32:54.460Z,9.46
2023-04-11T22:35:23.436Z,9.48
2023-04-11T22:37:53.791Z,9.50
2023-04-11T22:40:23.309Z,9.53
2023-04-11T22:42:52.383Z,9.51
2023-04-11T22:45:21.541Z,9.52
2023-04-11T22:47:54.154Z,9.50
2023-04-11T22:50:22.793Z,9.49
2023-04-11T22:52:51.423Z,9.52
2023-04-11T22:55:25.136Z,9.52
2023-04-11T22:57:54.095Z,9.52
2023-04-11T23:00:24.225Z,9.49
2023-04-11T23:02:52.668Z,9.46
2023-04-11T23:05:20.957Z,9.47
2023-04-11T23:07:49.220Z,9.44
2023-04-11T23:10:29.094Z,9.46
2023-04-11T23:12:57.917Z,9.47
2023-04-11T23:15:26.734Z,9.50
2023-04-11T23:17:56.666Z,9.52
2023-04-11T23:20:24.898Z,9.52
2023-04-11T23:22:53.340Z,9.47
2023-04-11T23:25:24.683Z,9.45
2023-04-11T23:27:54.359Z,9.45
2023-04-11T23:30:22.625Z,9.46
2023-04-11T23:32:51.353Z,9.47
2023-04-11T23:35:20.857Z,9.49
2023-04-11T23:37:49.098Z,9.51
2023-04-11T23:40:17.383Z,9.52
2023-04-11T23:42:45.603Z,9.50
2023-04-11T23:45:22.616Z,9.48
2023-04-11T23:47:51.098Z,9.47
2023-04-11T23:50:19.449Z,9.47
2023-04-11T23:52:47.827Z,9.49
2023-04-11T23:55:16.678Z,9.46
2023-04-11T23:57:44.982Z,9.45
